Latest Weather Observations for Scotts Peak

IDT60801

Issued at 8:35 am EST Thursday 24 July 2014 (issued every 30 minutes, with the page automatically refreshed every 10 minutes)

About weather observations | Map of weather stations | Latest weather observations for TAS | Other Formats
Station Details ID: 097083 Name: SCOTTS PEAK DAM Lat: -43.04 Lon: 146.27 Height: 408.0 m
Data from the previous 72 hours. | See also: Recent months at Scotts Peak
Date/Time
EST
Temp
°C
App
Temp
°C
Dew
Point
Rel
Hum
%
Delta-T
°C
Wind Press
QNH
hPa
Press
MSL
hPa
Rain
since 9 am
mm
Dir
 
Spd
km/h
Gust
km/h
Spd
kts
Gust
kts
24/08:30am 2.1 -0.7 2.0 99 0.0 NW 6 9 3 5 - - 0.2
24/08:00am 1.7 -1.2 1.6 99 0.0 N 6 6 3 3 - - 0.2
24/07:30am 1.6 -1.9 1.5 99 0.0 NNW 9 11 5 6 - - 0.2
24/07:00am 1.4 -2.1 1.3 99 0.0 NNW 9 11 5 6 - - 0.2
24/06:30am 1.2 -1.4 1.1 99 0.0 NNW 4 9 2 5 - - 0.2
24/06:00am 1.8 -1.6 1.7 99 0.0 N 9 9 5 5 - - 0.2
24/05:30am 1.4 -0.8 1.3 99 0.0 NW 2 11 1 6 - - 0.2
24/05:00am 1.4 -1.7 1.3 99 0.0 ESE 7 9 4 5 - - 0.2
24/04:30am 1.7 0.0 1.6 99 0.0 CALM 0 0 0 0 - - 0.2
24/04:00am 2.1 0.0 2.0 99 0.0 SSW 2 6 1 3 - - 0.0
24/03:30am 1.7 -1.7 1.6 99 0.0 SE 9 11 5 6 - - 0.0
24/03:00am 2.1 -0.9 2.0 99 0.0 ESE 7 9 4 5 - - 0.0
24/02:30am 3.0 -0.6 2.9 99 0.0 SE 11 11 6 6 - - 0.0
24/02:00am 3.4 0.2 3.3 99 0.0 SSE 9 9 5 5 - - 0.0
24/01:30am 3.1 -0.1 3.0 99 0.0 SSE 9 11 5 6 - - 0.0
24/01:00am 3.2 0.0 3.1 99 0.0 ESE 9 11 5 6 - - 0.0
24/12:30am 3.4 0.6 3.3 99 0.0 SE 7 9 4 5 - - 0.0
24/12:00am 3.4 0.2 3.1 98 0.1 SE 9 11 5 6 - - 0.0
 
Date/Time
EST
Temp
°C
App
Temp
°C
Dew
Point
Rel
Hum
%
Delta-T
°C
Wind Press
QNH
hPa
Press
MSL
hPa
Rain
since 9 am
mm
Dir
 
Spd
km/h
Gust
km/h
Spd
kts
Gust
kts
23/11:30pm 4.0 2.2 3.7 98 0.1 SSE 2 9 1 5 - - 0.0
23/11:00pm 4.3 1.7 4.0 98 0.1 SE 7 9 4 5 - - 0.0
23/10:30pm 4.2 1.6 4.1 99 0.0 SSE 7 7 4 4 - - 0.0
23/10:00pm 4.2 0.8 4.1 99 0.0 SSE 11 13 6 7 - - 0.0
23/09:30pm 4.7 1.8 4.4 98 0.1 ESE 9 11 5 6 - - 0.0
23/09:00pm 4.9 3.3 4.5 97 0.2 ENE 2 7 1 4 - - 0.0
23/08:30pm 4.6 2.0 4.0 96 0.3 NNW 7 9 4 5 - - 0.0
23/08:00pm 5.2 2.7 4.6 96 0.3 NNW 7 9 4 5 - - 0.0
23/07:30pm 5.3 2.9 4.3 93 0.4 NNW 6 7 3 4 - - 0.0
23/07:00pm 6.4 4.0 5.4 93 0.5 NW 7 9 4 5 - - 0.0
23/06:30pm 6.7 3.9 5.3 91 0.6 WNW 9 11 5 6 - - 0.0
23/06:00pm 7.1 4.7 5.1 87 0.9 SW 7 11 4 6 - - 0.0
23/05:30pm 7.3 4.9 5.1 86 1.0 SW 7 11 4 6 - - 0.0
23/05:00pm 7.6 5.1 4.7 82 1.3 W 7 9 4 5 - - 0.0
23/04:30pm 8.4 6.2 5.2 80 1.5 NW 6 7 3 4 - - 0.0
23/04:00pm 8.4 5.6 5.0 79 1.6 NNW 9 11 5 6 - - 0.0
23/03:30pm 11.3 8.6 5.8 69 2.6 NW 9 13 5 7 - - 0.0
23/03:00pm 11.4 8.0 5.7 68 2.7 NW 13 15 7 8 - - 0.0
23/02:30pm 12.9 9.7 6.9 67 3.0 NW 13 15 7 8 - - 0.0
23/02:00pm 12.8 10.1 7.5 70 2.6 NNW 11 20 6 11 - - 0.0
23/01:30pm 12.3 9.2 7.2 71 2.5 N 13 17 7 9 - - 0.0
23/01:00pm 12.3 9.7 7.8 74 2.2 NNW 11 15 6 8 - - 0.0
23/12:30pm 11.7 8.6 8.7 82 1.5 NNW 15 19 8 10 - - 0.0
23/12:00pm 11.0 7.5 8.6 85 1.2 N 17 20 9 11 - - 0.0
23/11:30am 10.8 7.8 9.2 90 0.8 NNW 15 19 8 10 - - 0.0
23/11:00am 9.6 6.9 9.0 96 0.3 NNW 13 17 7 9 - - 0.0
23/10:30am 7.5 4.8 7.4 99 0.0 N 11 17 6 9 - - 0.0
23/10:00am 6.9 4.1 6.8 99 0.0 NNW 11 13 6 7 - - 0.0
23/09:30am 6.6 4.1 6.5 99 0.0 NNW 9 13 5 7 - - 0.0
23/09:00am 6.0 3.4 5.9 99 0.0 N 9 13 5 7 - - 1.0
23/08:30am 6.3 3.7 6.2 99 0.0 N 9 13 5 7 - - 1.0
23/08:00am 6.0 3.9 5.9 99 0.0 N 6 9 3 5 - - 1.0
23/07:30am 6.0 5.1 5.9 99 0.0 CALM 0 0 0 0 - - 1.0
23/07:00am 5.8 4.8 5.7 99 0.0 CALM 0 0 0 0 - - 1.0
23/06:30am 5.9 4.9 5.8 99 0.0 CALM 0 0 0 0 - - 1.0
23/06:00am 6.0 4.3 5.9 99 0.0 WNW 4 9 2 5 - - 1.0
23/05:30am 5.9 3.8 5.8 99 0.0 NNW 6 9 3 5 - - 1.0
23/05:00am 6.0 5.1 5.9 99 0.0 CALM 0 7 0 4 - - 0.8
23/04:30am 6.0 3.9 5.9 99 0.0 NE 6 9 3 5 - - 0.4
23/04:00am 5.8 3.5 5.7 99 0.0 NNW 7 9 4 5 - - 0.4
23/03:30am 5.7 2.6 5.6 99 0.0 NNW 11 13 6 7 - - 0.4
23/03:00am 5.7 3.0 5.6 99 0.0 NNW 9 11 5 6 - - 0.4
23/02:30am 6.0 2.9 5.7 98 0.1 N 11 13 6 7 - - 0.4
23/02:00am 6.1 3.1 5.8 98 0.1 NNW 11 15 6 8 - - 0.4
23/01:30am 6.4 4.2 6.0 97 0.2 NNW 7 11 4 6 - - 0.4
23/01:00am 6.3 5.4 6.0 98 0.1 CALM 0 0 0 0 - - 0.0
23/12:30am 6.1 4.0 5.8 98 0.1 NNW 6 7 3 4 - - 0.0
23/12:00am 6.1 3.4 5.7 97 0.2 NNW 9 11 5 6 - - 0.0
 
Date/Time
EST
Temp
°C
App
Temp
°C
Dew
Point
Rel
Hum
%
Delta-T
°C
Wind Press
QNH
hPa
Press
MSL
hPa
Rain
since 9 am
mm
Dir
 
Spd
km/h
Gust
km/h
Spd
kts
Gust
kts
22/11:30pm 6.3 3.7 5.9 97 0.2 N 9 13 5 7 - - 0.0
22/11:00pm 6.5 4.5 6.1 97 0.2 NNW 6 6 3 3 - - 0.0
22/10:30pm 6.4 4.3 6.0 97 0.2 N 6 9 3 5 - - 0.0
22/10:00pm 6.4 3.0 6.0 97 0.2 N 13 13 7 7 - - 0.0
22/09:30pm 6.4 5.4 5.8 96 0.3 CALM 0 4 0 2 - - 0.0
22/09:00pm 6.2 3.9 5.6 96 0.3 NNW 7 11 4 6 - - 0.0
22/08:30pm 6.3 3.3 5.9 97 0.2 N 11 13 6 7 - - 0.0
22/08:00pm 6.3 4.6 5.9 97 0.2 N 4 7 2 4 - - 0.0
22/07:30pm 6.4 3.4 6.0 97 0.2 N 11 15 6 8 - - 0.0
22/07:00pm 6.5 3.5 6.1 97 0.2 NNW 11 15 6 8 - - 0.0
22/06:30pm 6.6 4.4 6.0 96 0.3 N 7 9 4 5 - - 0.0
22/06:00pm 6.2 3.5 5.6 96 0.3 N 9 13 5 7 - - 0.0
22/05:30pm 6.5 3.9 5.9 96 0.3 NNW 9 11 5 6 - - 0.0
22/05:00pm 6.6 3.6 6.0 96 0.3 N 11 13 6 7 - - 0.0
22/04:30pm 6.9 4.3 6.0 94 0.4 NW 9 11 5 6 - - 0.0
22/04:00pm 6.9 4.2 5.5 91 0.6 NW 9 9 5 5 - - 0.0
22/03:30pm 7.0 4.7 5.8 92 0.6 NNW 7 9 4 5 - - 0.0
22/03:00pm 7.0 4.2 5.3 89 0.8 NW 9 11 5 6 - - 0.0
22/02:30pm 8.5 6.2 7.3 92 0.6 NNW 9 13 5 7 - - 0.0
22/02:00pm 9.1 7.5 8.6 97 0.2 NNW 7 11 4 6 - - 0.0
22/01:30pm 6.9 4.8 6.8 99 0.0 NW 7 9 4 5 - - 0.0
22/01:00pm 6.6 4.5 6.5 99 0.0 NNW 7 11 4 6 - - 0.0
22/12:30pm 5.9 4.6 5.8 99 0.0 NW 2 7 1 4 - - 0.0
22/12:00pm 6.6 4.7 6.5 99 0.0 NNW 6 9 3 5 - - 0.0
22/11:30am 6.1 4.0 6.0 99 0.0 NNW 6 9 3 5 - - 0.0
22/11:00am 4.7 2.4 4.6 99 0.0 NW 6 9 3 5 - - 0.0
22/10:30am 3.9 1.4 3.8 99 0.0 N 6 7 3 4 - - 0.0
22/10:00am 4.0 2.3 3.9 99 0.0 WNW 2 6 1 3 - - 0.0
22/09:30am 2.9 1.4 2.8 99 0.0 CALM 0 0 0 0 - - 0.0
22/09:00am 3.1 1.6 3.0 99 0.0 CALM 0 6 0 3 - - 0.8
22/08:30am 2.6 0.6 2.5 99 0.0 ESE 2 6 1 3 - - 0.8
22/08:00am 2.2 -0.8 2.1 99 0.0 ESE 7 11 4 6 - - 0.8
22/07:30am 2.5 0.9 2.4 99 0.0 CALM 0 6 0 3 - - 0.8
22/07:00am 2.9 0.0 2.8 99 0.0 N 7 9 4 5 - - 0.8
22/06:30am 2.3 0.3 2.2 99 0.0 ENE 2 6 1 3 - - 0.8
22/06:00am 3.0 0.7 2.9 99 0.0 N 4 7 2 4 - - 0.8
22/05:30am 2.9 0.6 2.8 99 0.0 NE 4 7 2 4 - - 0.4
22/05:00am 3.0 -0.2 2.9 99 0.0 N 9 13 5 7 - - 0.4
22/04:30am 3.1 -0.1 3.0 99 0.0 NNW 9 13 5 7 - - 0.4
22/04:00am 2.8 0.9 2.7 99 0.0 ENE 2 6 1 3 - - 0.4
22/03:30am 2.8 0.9 2.7 99 0.0 NE 2 7 1 4 - - 0.4
22/03:00am 3.2 0.4 3.1 99 0.0 N 7 11 4 6 - - 0.4
22/02:30am 3.1 0.3 3.0 99 0.0 N 7 9 4 5 - - 0.4
22/02:00am 3.1 0.5 3.0 99 0.0 NE 6 9 3 5 - - 0.4
22/01:30am 3.4 1.6 3.3 99 0.0 NW 2 7 1 4 - - 0.2
22/01:00am 3.3 1.8 3.2 99 0.0 CALM 0 0 0 0 - - 0.2
22/12:30am 3.4 2.0 3.3 99 0.0 CALM 0 0 0 0 - - 0.2
22/12:00am 3.4 0.8 3.3 99 0.0 WNW 6 7 3 4 - - 0.2
 
Date/Time
EST
Temp
°C
App
Temp
°C
Dew
Point
Rel
Hum
%
Delta-T
°C
Wind Press
QNH
hPa
Press
MSL
hPa
Rain
since 9 am
mm
Dir
 
Spd
km/h
Gust
km/h
Spd
kts
Gust
kts
21/11:30pm 3.3 0.5 3.2 99 0.0 NW 7 9 4 5 - - 0.2
21/11:00pm 3.2 1.3 3.1 99 0.0 NNW 2 7 1 4 - - 0.2
21/10:30pm 3.0 1.5 2.9 99 0.0 CALM 0 0 0 0 - - 0.2
21/10:00pm 3.5 2.1 3.4 99 0.0 CALM 0 0 0 0 - - 0.0
21/09:30pm 3.7 1.2 3.6 99 0.0 N 6 7 3 4 - - 0.0
21/09:00pm 3.8 2.4 3.5 98 0.1 CALM 0 0 0 0 - - 0.0
21/08:30pm 4.4 3.1 4.3 99 0.0 CALM 0 0 0 0 - - 0.0
21/08:00pm 4.0 1.5 3.7 98 0.1 N 6 6 3 3 - - 0.0
21/07:30pm 4.0 1.3 3.7 98 0.1 E 7 7 4 4 - - 0.0
21/07:00pm 4.6 3.3 4.3 98 0.1 CALM 0 0 0 0 - - 0.0
21/06:30pm 4.0 1.3 3.6 97 0.2 NNW 7 7 4 4 - - 0.0
21/06:00pm 3.8 0.6 3.1 95 0.3 NNW 9 11 5 6 - - 0.0
21/05:30pm 4.3 1.5 3.3 93 0.4 NNW 7 9 4 5 - - 0.0
21/05:00pm 4.9 2.2 3.6 91 0.6 NW 7 7 4 4 - - 0.0
21/04:30pm 5.8 3.2 4.0 88 0.8 NW 7 9 4 5 - - 0.0
21/04:00pm 7.7 5.3 5.2 84 1.1 NW 7 7 4 4 - - 0.0
21/03:30pm 8.5 5.9 6.3 86 1.0 NW 9 11 5 6 - - 0.0
21/03:00pm 7.8 4.7 5.6 86 1.0 NW 11 13 6 7 - - 0.0
21/02:30pm 7.4 4.1 4.7 83 1.2 NW 11 13 6 7 - - 0.0
21/02:00pm 8.1 5.4 5.7 85 1.1 NNW 9 13 5 7 - - 0.0
21/01:30pm 7.6 5.5 6.5 93 0.5 N 7 11 4 6 - - 0.0
21/01:00pm 5.8 3.4 5.1 95 0.3 NW 7 9 4 5 - - 0.0
21/12:30pm 5.9 3.6 5.8 99 0.0 NNW 7 11 4 6 - - 0.0
21/12:00pm 5.1 2.3 5.0 99 0.0 NW 9 13 5 7 - - 0.0
21/11:30am 4.5 2.5 4.4 99 0.0 NNW 4 9 2 5 - - 0.0
21/11:00am 4.0 2.3 3.9 99 0.0 WNW 2 11 1 6 - - 0.0
21/10:30am 3.8 1.3 3.7 99 0.0 E 6 9 3 5 - - 0.0
21/10:00am 3.7 1.0 3.6 99 0.0 N 7 11 4 6 - - 0.0
21/09:30am 2.8 0.1 2.7 99 0.0 NE 6 11 3 6 - - 0.0
21/09:00am 2.9 0.2 2.8 99 0.0 ENE 6 9 3 5 - - 0.6

Other Formats:

Comma delimited format used in spreadsheet applications
http://www.bom.gov.au/fwo/IDT60801/IDT60801.95958.axf

JavaScript Object Notation format (JSON) in row-major order
http://www.bom.gov.au/fwo/IDT60801/IDT60801.95958.json